Time;durP1;ratioP1;P1;durP2;ratioP2;P2;SDS_P1;SDS_P2;PMS_P1;PMS_P2;Temp;Humidity;BMP_temperature;BMP_pressure;BME280_temperature;BME280_humidity;BME280_pressure;Samples;Min_cycle;Max_cycle;Signal;HPM_P1;HPM_P2
2023/03/19 00:00:08;;;;;;;33.90;9.60;;;;;;;12.18;57.13;101276.12;108197;1286;21986;-67
2023/03/19 00:02:36;;;;;;;40.80;9.20;;;;;;;12.18;57.17;101272.97;108154;1285;22067;-67
2023/03/19 00:05:03;;;;;;;34.90;8.60;;;;;;;12.16;57.06;101269.10;108140;1272;21987;-67
2023/03/19 00:07:29;;;;;;;28.80;9.30;;;;;;;12.13;57.27;101269.30;108219;1285;22021;-67
2023/03/19 00:09:57;;;;;;;39.90;9.10;;;;;;;12.09;57.21;101269.51;108114;1283;21985;-67
2023/03/19 00:12:23;;;;;;;33.50;11.10;;;;;;;12.06;57.28;101261.95;108024;1285;21982;-67
2023/03/19 00:14:52;;;;;;;31.80;9.60;;;;;;;12.06;57.57;101265.29;108142;1285;21988;-68
2023/03/19 00:17:19;;;;;;;22.00;9.30;;;;;;;12.08;57.61;101266.33;108068;1273;21986;-68
2023/03/19 00:19:45;;;;;;;31.90;9.20;;;;;;;12.06;57.42;101264.23;108085;1285;22023;-69
2023/03/19 00:22:12;;;;;;;35.70;8.60;;;;;;;12.08;57.38;101263.52;108088;1277;23458;-67
2023/03/19 00:24:39;;;;;;;25.10;8.60;;;;;;;12.10;57.56;101260.34;108070;1285;23062;-66
2023/03/19 00:27:05;;;;;;;32.00;9.40;;;;;;;12.08;57.40;101258.59;108139;1285;21982;-68
2023/03/19 00:29:32;;;;;;;30.90;8.60;;;;;;;12.05;57.40;101256.48;108161;1285;21989;-67
2023/03/19 00:31:58;;;;;;;30.70;8.60;;;;;;;12.03;57.45;101257.03;108197;1285;21997;-68
2023/03/19 00:34:23;;;;;;;26.50;9.20;;;;;;;12.04;57.49;101260.71;108162;1285;21997;-68
2023/03/19 00:36:49;;;;;;;36.30;9.10;;;;;;;12.04;57.46;101260.38;108139;1286;21993;-68
2023/03/19 00:39:20;;;;;;;28.80;7.70;;;;;;;12.02;57.55;101257.20;108190;1286;22001;-67
2023/03/19 00:41:49;;;;;;;27.00;8.20;;;;;;;12.00;57.57;101254.75;108071;1284;21989;-67
2023/03/19 00:44:17;;;;;;;28.40;8.50;;;;;;;12.00;57.65;101255.46;108144;1285;21982;-67
2023/03/19 00:46:44;;;;;;;23.30;8.40;;;;;;;12.00;57.50;101256.16;108135;1285;22004;-68
2023/03/19 00:49:10;;;;;;;21.10;7.60;;;;;;;11.98;57.43;101258.25;108139;1285;21987;-68
2023/03/19 00:51:45;;;;;;;25.40;8.50;;;;;;;11.97;57.62;101255.23;108128;1285;21986;-68
2023/03/19 00:54:11;;;;;;;31.50;8.20;;;;;;;11.98;57.59;101256.30;108124;1285;22464;-68
2023/03/19 00:56:38;;;;;;;29.90;8.10;;;;;;;11.99;57.59;101255.26;108010;1285;22026;-67
2023/03/19 00:59:05;;;;;;;32.00;9.50;;;;;;;12.01;57.89;101253.33;108087;1285;21992;-67
2023/03/19 01:01:31;;;;;;;34.80;9.30;;;;;;;12.07;57.85;101253.48;108245;1285;21997;-67
2023/03/19 01:03:58;;;;;;;27.40;8.70;;;;;;;12.10;57.78;101253.30;108109;1286;21984;-68
2023/03/19 01:06:23;;;;;;;29.90;9.20;;;;;;;12.12;57.76;101252.94;108244;1284;21997;-71
2023/03/19 01:08:50;;;;;;;22.80;8.30;;;;;;;12.11;57.60;101252.42;108162;1286;21988;-69
2023/03/19 01:11:17;;;;;;;24.40;8.20;;;;;;;12.10;57.52;101252.60;108166;1285;21995;-69
2023/03/19 01:13:43;;;;;;;25.40;8.50;;;;;;;12.10;57.39;101250.32;108340;1286;21989;-68
2023/03/19 01:16:10;;;;;;;23.00;8.40;;;;;;;12.10;57.46;101245.92;108138;1285;21986;-67
2023/03/19 01:18:36;;;;;;;29.50;10.30;;;;;;;12.10;57.45;101242.58;108098;1285;21983;-67
2023/03/19 01:21:02;;;;;;;25.50;8.70;;;;;;;12.12;57.50;101243.10;108136;1285;21992;-68
2023/03/19 01:23:29;;;;;;;29.10;9.50;;;;;;;12.11;57.54;101239.57;108183;1272;21998;-68
2023/03/19 01:25:56;;;;;;;30.00;10.30;;;;;;;12.10;57.53;101240.46;108205;1285;21984;-67
2023/03/19 01:28:22;;;;;;;25.00;8.50;;;;;;;12.12;57.53;101241.16;108085;1285;21994;-67
2023/03/19 01:30:47;;;;;;;25.20;9.20;;;;;;;12.14;57.48;101241.84;108084;1285;22007;-67
2023/03/19 01:33:14;;;;;;;23.00;7.80;;;;;;;12.14;57.62;101242.90;108064;1285;21985;-67
2023/03/19 01:35:40;;;;;;;21.60;7.60;;;;;;;12.17;57.54;101243.23;108046;1285;21998;-67
2023/03/19 01:38:06;;;;;;;25.80;8.70;;;;;;;12.19;57.45;101241.46;108328;1285;21989;-69
2023/03/19 01:40:32;;;;;;;25.10;9.00;;;;;;;12.15;57.17;101241.66;108135;1273;22005;-67
2023/03/19 01:43:22;;;;;;;16.60;9.10;;;;;;;12.06;57.09;101240.47;108201;1286;21991;-67
2023/03/19 01:45:52;;;;;;;23.70;8.90;;;;;;;12.01;57.36;101238.91;108154;1286;22001;-67
2023/03/19 01:48:23;;;;;;;20.30;8.70;;;;;;;11.98;57.26;101237.84;108204;1285;22003;-68
2023/03/19 01:50:49;;;;;;;18.10;7.60;;;;;;;11.96;57.32;101237.49;108121;1286;21997;-68
2023/03/19 01:53:16;;;;;;;17.50;7.90;;;;;;;11.94;57.35;101236.80;108185;1286;21986;-67
2023/03/19 01:55:45;;;;;;;21.80;9.10;;;;;;;11.93;57.46;101238.05;108123;1286;22013;-68
2023/03/19 01:58:11;;;;;;;17.70;8.50;;;;;;;11.91;57.40;101239.46;108125;1285;21984;-67
2023/03/19 02:00:37;;;;;;;23.40;8.00;;;;;;;11.87;57.64;101241.92;108112;1286;21989;-68
2023/03/19 02:03:02;;;;;;;21.00;9.70;;;;;;;11.73;58.18;101246.73;108142;1285;21981;-67
2023/03/19 02:05:28;;;;;;;20.30;7.50;;;;;;;11.67;58.12;101244.47;108164;1286;22049;-68
2023/03/19 02:08:00;;;;;;;19.60;8.30;;;;;;;11.67;58.41;101247.98;108132;1286;21997;-67
2023/03/19 02:10:26;;;;;;;21.90;9.20;;;;;;;11.81;58.07;101247.41;108295;1285;21992;-68
2023/03/19 02:12:51;;;;;;;25.10;9.20;;;;;;;11.79;58.02;101242.84;108187;1273;21992;-67
2023/03/19 02:15:19;;;;;;;22.60;10.10;;;;;;;11.72;58.45;101242.86;108162;1286;22024;-68
2023/03/19 02:17:45;;;;;;;21.10;9.70;;;;;;;11.72;58.50;101244.09;108175;1285;21987;-68
2023/03/19 02:20:26;;;;;;;17.90;8.60;;;;;;;11.78;58.22;101246.17;108178;1285;21982;-66
2023/03/19 02:22:59;;;;;;;23.80;8.50;;;;;;;11.82;58.15;101247.93;108104;1285;22007;-67
2023/03/19 02:25:50;;;;;;;22.10;9.20;;;;;;;11.72;58.42;101244.97;107420;1286;1003005;-69
2023/03/19 02:28:17;;;;;;;20.10;8.20;;;;;;;11.82;57.95;101246.88;108048;1285;21993;-68
2023/03/19 02:30:44;;;;;;;24.70;9.20;;;;;;;11.82;57.92;101245.13;108081;1285;21989;-67
2023/03/19 02:33:13;;;;;;;18.80;8.40;;;;;;;11.68;58.28;101249.03;108051;1285;22020;-67
2023/03/19 02:35:39;;;;;;;22.50;9.80;;;;;;;11.62;58.55;101248.52;108093;1285;22043;-66
2023/03/19 02:38:06;;;;;;;22.50;9.50;;;;;;;11.60;58.75;101246.95;108132;1284;21981;-67
2023/03/19 02:40:37;;;;;;;26.10;9.50;;;;;;;11.62;58.57;101244.82;108183;1285;21988;-68
2023/03/19 02:43:03;;;;;;;22.20;8.30;;;;;;;11.57;58.73;101252.05;108211;1286;21970;-67
2023/03/19 02:45:30;;;;;;;18.80;9.00;;;;;;;11.65;58.73;101251.50;108135;1286;21965;-68
2023/03/19 02:47:56;;;;;;;17.70;8.60;;;;;;;11.73;58.68;101251.30;108116;1285;21995;-66
2023/03/19 02:50:21;;;;;;;20.30;9.50;;;;;;;11.71;59.25;101253.94;108143;1285;23640;-67
2023/03/19 02:52:47;;;;;;;22.90;9.10;;;;;;;11.72;59.05;101254.11;108122;1285;21997;-67
2023/03/19 02:55:12;;;;;;;21.70;11.10;;;;;;;11.74;59.14;101256.74;108122;1286;21987;-66
2023/03/19 02:57:38;;;;;;;17.10;8.50;;;;;;;11.82;58.80;101257.07;108209;1285;21986;-67
2023/03/19 03:00:09;;;;;;;19.50;9.20;;;;;;;11.91;58.22;101258.63;108158;1285;21982;-67
2023/03/19 03:02:39;;;;;;;21.30;8.60;;;;;;;11.83;58.53;101254.77;108103;1285;21997;-67
2023/03/19 03:05:06;;;;;;;21.50;10.30;;;;;;;11.82;58.84;101257.61;108082;1285;21982;-67
2023/03/19 03:07:34;;;;;;;18.20;8.60;;;;;;;11.86;58.78;101256.70;108120;1285;21978;-66
2023/03/19 03:10:01;;;;;;;19.80;9.90;;;;;;;11.97;58.65;101254.21;108158;1285;21987;-66
2023/03/19 03:12:26;;;;;;;19.60;10.00;;;;;;;12.07;58.18;101251.20;108048;1285;21994;-67
2023/03/19 03:14:52;;;;;;;26.00;11.00;;;;;;;12.13;58.03;101253.46;108054;1285;21983;-66
2023/03/19 03:17:18;;;;;;;16.00;8.90;;;;;;;12.15;57.90;101253.45;108096;1285;21988;-66
2023/03/19 03:19:44;;;;;;;18.30;9.60;;;;;;;12.15;57.76;101249.92;108034;1285;22026;-67
2023/03/19 03:22:10;;;;;;;25.40;8.80;;;;;;;12.15;57.72;101254.85;108041;1285;21993;-66
2023/03/19 03:24:38;;;;;;;17.20;9.80;;;;;;;12.17;57.63;101259.60;108073;1285;21998;-66
2023/03/19 03:27:08;;;;;;;18.30;9.80;;;;;;;12.18;57.65;101260.48;108191;1273;22044;-67
2023/03/19 03:29:34;;;;;;;16.30;8.90;;;;;;;12.18;57.59;101262.58;108276;1272;22003;-67
2023/03/19 03:32:00;;;;;;;20.50;9.50;;;;;;;12.21;57.70;101262.40;108137;1285;21993;-67
2023/03/19 03:34:26;;;;;;;20.70;9.60;;;;;;;12.24;57.71;101264.48;108136;1285;22070;-67
2023/03/19 03:36:52;;;;;;;15.00;9.00;;;;;;;12.25;57.66;101263.43;108197;1285;22034;-67
2023/03/19 03:39:18;;;;;;;16.90;8.60;;;;;;;12.24;57.51;101265.20;108033;1285;21989;-68
2023/03/19 03:41:44;;;;;;;17.70;9.60;;;;;;;12.26;57.54;101269.76;108108;1285;21986;-67
2023/03/19 03:44:10;;;;;;;20.20;9.10;;;;;;;12.27;57.48;101268.70;108103;1285;21993;-66
2023/03/19 03:46:42;;;;;;;15.00;8.20;;;;;;;12.27;57.51;101263.95;108162;1285;21989;-68
2023/03/19 03:49:08;;;;;;;16.60;9.00;;;;;;;12.28;57.34;101264.48;108089;1285;22006;-67
2023/03/19 03:51:34;;;;;;;17.90;9.70;;;;;;;12.30;57.63;101261.30;108029;1276;21995;-68
2023/03/19 03:54:01;;;;;;;17.50;9.40;;;;;;;12.29;57.33;101260.60;108045;1285;22010;-68
2023/03/19 03:56:26;;;;;;;18.10;9.70;;;;;;;12.25;57.04;101261.52;108087;1285;21987;-69
2023/03/19 03:58:52;;;;;;;17.40;9.70;;;;;;;12.20;57.18;101262.23;107994;1285;21987;-68
2023/03/19 04:01:18;;;;;;;16.90;8.60;;;;;;;12.17;57.30;101263.46;108000;1285;21990;-69
2023/03/19 04:03:44;;;;;;;19.10;10.10;;;;;;;12.18;57.30;101264.16;108050;1285;23609;-69
2023/03/19 04:06:17;;;;;;;17.00;9.00;;;;;;;12.21;57.47;101267.85;108032;1285;21993;-67
2023/03/19 04:08:43;;;;;;;19.40;10.10;;;;;;;12.23;57.48;101270.83;107986;1284;22456;-68
2023/03/19 04:11:09;;;;;;;20.30;9.60;;;;;;;12.24;57.34;101273.46;108005;1285;21988;-69
2023/03/19 04:13:36;;;;;;;21.30;10.60;;;;;;;12.24;57.28;101279.63;108026;1285;22154;-69
2023/03/19 04:16:06;;;;;;;23.70;10.20;;;;;;;12.25;57.45;101281.03;108009;1285;21982;-68
2023/03/19 04:18:33;;;;;;;20.70;10.20;;;;;;;12.26;57.52;101284.55;108015;1285;21993;-68
2023/03/19 04:20:59;;;;;;;18.50;9.20;;;;;;;12.27;57.44;101283.65;108084;1285;21985;-69
2023/03/19 04:23:27;;;;;;;16.70;9.20;;;;;;;12.29;57.45;101289.63;108081;1282;23643;-68
2023/03/19 04:26:00;;;;;;;17.90;9.90;;;;;;;12.32;57.44;101288.73;108095;1283;21986;-69
2023/03/19 04:28:27;;;;;;;19.00;10.20;;;;;;;12.34;57.35;101289.95;108046;1285;21991;-69
2023/03/19 04:30:58;;;;;;;20.10;9.50;;;;;;;12.34;57.21;101289.42;108149;1285;21997;-68
2023/03/19 04:33:24;;;;;;;19.40;10.40;;;;;;;12.33;57.07;101288.21;108268;1285;22007;-68
2023/03/19 04:35:50;;;;;;;23.30;10.50;;;;;;;12.29;56.90;101287.87;108109;1277;22519;-68
2023/03/19 04:38:18;;;;;;;21.40;10.30;;;;;;;12.28;57.01;101291.92;108164;1285;21994;-68
2023/03/19 04:40:45;;;;;;;24.90;9.80;;;;;;;12.28;57.18;101294.39;108084;1285;22002;-68
2023/03/19 04:43:11;;;;;;;15.40;9.70;;;;;;;12.27;57.22;101294.92;108149;1285;21998;-69
2023/03/19 04:45:37;;;;;;;20.40;9.70;;;;;;;12.24;57.17;101294.92;108036;1285;24373;-69
2023/03/19 04:48:03;;;;;;;19.00;9.60;;;;;;;12.23;57.17;101296.86;108035;1284;21997;-68
2023/03/19 04:50:31;;;;;;;19.20;9.90;;;;;;;12.24;57.20;101294.94;108129;1281;21992;-68
2023/03/19 04:52:56;;;;;;;32.00;11.40;;;;;;;12.25;57.49;101293.70;108188;1279;22462;-68
2023/03/19 04:55:23;;;;;;;20.00;11.10;;;;;;;12.29;58.02;101294.75;108075;1286;21992;-67
2023/03/19 04:57:48;;;;;;;19.10;9.80;;;;;;;12.34;57.85;101289.44;108148;1285;21987;-68
2023/03/19 05:00:16;;;;;;;17.90;9.90;;;;;;;12.36;57.66;101288.55;108115;1285;22003;-68
2023/03/19 05:02:42;;;;;;;21.10;9.80;;;;;;;12.37;57.57;101289.60;108951;1285;22048;-67
2023/03/19 05:05:12;;;;;;;22.00;9.70;;;;;;;12.38;57.40;101289.59;108005;1285;21981;-67
2023/03/19 05:07:40;;;;;;;21.40;9.80;;;;;;;12.40;57.55;101293.80;108096;1272;22021;-67
2023/03/19 05:10:07;;;;;;;19.20;8.90;;;;;;;12.42;57.73;101291.51;108085;1285;21987;-67
2023/03/19 05:12:35;;;;;;;17.30;10.00;;;;;;;12.44;57.51;101286.20;108064;1285;21986;-66
2023/03/19 05:15:04;;;;;;;26.80;10.00;;;;;;;12.46;57.42;101281.98;108108;1286;21987;-67
2023/03/19 05:17:31;;;;;;;16.20;10.10;;;;;;;12.48;57.49;101279.33;108174;1286;21997;-66
2023/03/19 05:20:03;;;;;;;15.80;9.20;;;;;;;12.51;57.91;101277.37;108113;1285;21983;-70
2023/03/19 05:22:31;;;;;;;15.70;9.00;;;;;;;12.55;57.59;101278.76;108245;1285;23133;-69
2023/03/19 05:24:57;;;;;;;14.10;8.90;;;;;;;12.56;57.34;101280.52;108038;1285;22005;-68
2023/03/19 05:27:24;;;;;;;19.60;10.00;;;;;;;12.57;57.34;101282.09;108239;1285;21985;-69
2023/03/19 05:29:50;;;;;;;11.70;7.80;;;;;;;12.58;57.20;101285.97;108326;1285;21974;-68
2023/03/19 05:32:16;;;;;;;15.60;8.70;;;;;;;12.57;57.05;101287.90;108272;1285;21986;-69
2023/03/19 05:34:42;;;;;;;14.60;8.70;;;;;;;12.55;57.06;101286.68;107986;1283;22161;-68
2023/03/19 05:37:08;;;;;;;17.00;10.00;;;;;;;12.56;57.24;101287.03;108217;1285;21995;-69
2023/03/19 05:39:37;;;;;;;14.80;9.40;;;;;;;12.56;57.20;101285.80;108020;1285;21996;-69
2023/03/19 05:42:04;;;;;;;15.80;9.50;;;;;;;12.55;57.18;101282.27;108090;1285;21955;-70
2023/03/19 05:44:30;;;;;;;16.60;9.00;;;;;;;12.55;57.16;101281.23;108156;1285;23577;-69
2023/03/19 05:46:56;;;;;;;18.40;9.30;;;;;;;12.55;56.98;101283.70;108027;1285;22005;-69
2023/03/19 05:49:22;;;;;;;16.00;9.90;;;;;;;12.54;57.04;101285.45;108043;1285;22001;-70
2023/03/19 05:51:48;;;;;;;16.70;10.30;;;;;;;12.55;57.13;101285.28;108189;1285;21990;-69
2023/03/19 05:54:15;;;;;;;18.00;9.90;;;;;;;12.57;57.18;101286.52;108019;1285;21993;-69
2023/03/19 05:56:40;;;;;;;16.40;10.20;;;;;;;12.55;57.30;101282.46;108047;1285;21987;-69
2023/03/19 05:59:06;;;;;;;17.40;10.10;;;;;;;12.50;57.06;101285.46;108034;1285;22107;-70
2023/03/19 06:01:33;;;;;;;16.00;9.80;;;;;;;12.50;57.13;101287.94;108074;1283;22040;-70
2023/03/19 06:04:02;;;;;;;16.70;10.00;;;;;;;12.51;57.34;101292.16;108117;1285;22101;-69
2023/03/19 06:06:28;;;;;;;17.20;9.70;;;;;;;12.49;57.27;101293.77;108034;1285;21997;-70
2023/03/19 06:08:54;;;;;;;15.80;9.60;;;;;;;12.51;57.26;101298.50;108197;1285;21984;-69
2023/03/19 06:11:20;;;;;;;16.00;9.70;;;;;;;12.52;57.17;101299.91;108244;1285;21987;-68
2023/03/19 06:13:46;;;;;;;15.60;9.90;;;;;;;12.53;57.24;101299.36;108236;1285;21993;-70
2023/03/19 06:16:12;;;;;;;16.40;9.90;;;;;;;12.56;57.33;101300.05;108257;1285;21986;-69
2023/03/19 06:18:42;;;;;;;15.10;10.60;;;;;;;12.61;57.41;101302.31;108252;1285;22004;-70
2023/03/19 06:21:09;;;;;;;16.30;10.00;;;;;;;12.62;57.23;101304.06;108150;1285;22155;-68
2023/03/19 06:23:35;;;;;;;15.70;9.50;;;;;;;12.60;57.24;101301.95;108114;1285;22038;-69
2023/03/19 06:26:06;;;;;;;15.60;10.30;;;;;;;12.61;57.18;101300.90;108029;1285;21986;-70
2023/03/19 06:28:32;;;;;;;14.40;9.40;;;;;;;12.62;57.17;101300.18;108068;1285;21994;-69
2023/03/19 06:30:58;;;;;;;15.20;9.70;;;;;;;12.65;57.28;101301.58;108145;1285;21989;-69
2023/03/19 06:33:30;;;;;;;15.70;9.60;;;;;;;12.68;57.13;101302.80;108079;1285;23634;-69
2023/03/19 06:35:57;;;;;;;14.50;9.60;;;;;;;12.71;57.32;101304.19;108227;1281;21984;-70
2023/03/19 06:38:23;;;;;;;15.40;10.00;;;;;;;12.74;57.29;101304.88;108265;1285;23732;-69
2023/03/19 06:40:49;;;;;;;13.60;9.10;;;;;;;12.78;57.31;101305.56;108034;1285;21984;-70
2023/03/19 06:43:14;;;;;;;15.60;10.20;;;;;;;12.80;57.20;101303.79;108091;1285;21984;-70
2023/03/19 06:45:44;;;;;;;13.90;9.00;;;;;;;12.82;57.18;101304.29;108051;1285;21987;-70
2023/03/19 06:48:11;;;;;;;13.40;9.10;;;;;;;12.83;57.19;101300.40;108303;1285;21989;-69
2023/03/19 06:50:36;;;;;;;12.70;8.20;;;;;;;12.84;57.10;101299.69;107416;1285;1002481;-69
2023/03/19 06:53:03;;;;;;;13.90;9.50;;;;;;;12.86;57.21;101295.63;108257;1285;22028;-69
2023/03/19 06:55:30;;;;;;;16.00;9.50;;;;;;;12.89;57.15;101291.73;108378;1285;23804;-70
2023/03/19 06:57:55;;;;;;;14.00;9.20;;;;;;;12.90;57.06;101292.42;108026;1285;23027;-69
2023/03/19 07:00:22;;;;;;;14.10;9.30;;;;;;;12.91;57.15;101299.11;108017;1285;22030;-67
2023/03/19 07:02:48;;;;;;;13.20;9.10;;;;;;;12.93;57.15;101306.34;108067;1285;23291;-67
2023/03/19 07:05:14;;;;;;;13.20;8.80;;;;;;;12.95;57.29;101308.08;108027;1285;21978;-67
2023/03/19 07:07:42;;;;;;;11.80;8.50;;;;;;;12.99;57.34;101310.69;108078;1285;22018;-68
2023/03/19 07:10:08;;;;;;;10.20;7.60;;;;;;;13.01;57.07;101311.73;108046;1282;22164;-69
2023/03/19 07:12:35;;;;;;;10.80;8.20;;;;;;;13.02;56.95;101313.14;108086;1285;21997;-69
2023/03/19 07:15:00;;;;;;;10.50;7.60;;;;;;;13.04;57.12;101312.95;108047;1283;21993;-68
2023/03/19 07:17:26;;;;;;;12.00;8.20;;;;;;;13.08;57.17;101313.44;108188;1285;21978;-68
2023/03/19 07:19:52;;;;;;;12.70;8.70;;;;;;;13.12;56.91;101311.11;108004;1280;21986;-68
2023/03/19 07:22:18;;;;;;;10.60;8.10;;;;;;;13.15;57.11;101309.51;108039;1285;21982;-69
2023/03/19 07:24:44;;;;;;;11.00;7.60;;;;;;;13.19;57.11;101311.23;108093;1285;22171;-69
2023/03/19 07:27:10;;;;;;;12.00;7.70;;;;;;;13.24;57.05;101309.80;108174;1285;21989;-67
2023/03/19 07:29:37;;;;;;;10.60;7.70;;;;;;;13.29;57.32;101313.27;107999;1285;21992;-69
2023/03/19 07:32:03;;;;;;;12.00;7.80;;;;;;;13.33;57.30;101309.54;108075;1285;21989;-68
2023/03/19 07:34:31;;;;;;;12.00;7.90;;;;;;;13.38;57.21;101312.30;108044;1285;21985;-69
2023/03/19 07:36:57;;;;;;;8.90;6.60;;;;;;;13.42;57.04;101316.55;108115;1285;21991;-68
2023/03/19 07:39:23;;;;;;;9.60;6.90;;;;;;;13.45;57.05;101313.70;107999;1285;22173;-67
2023/03/19 07:41:48;;;;;;;10.20;7.10;;;;;;;13.48;56.93;101312.95;107998;1285;21987;-69
2023/03/19 07:44:15;;;;;;;10.00;6.50;;;;;;;13.50;56.87;101318.93;108298;1285;21983;-69
2023/03/19 07:46:48;;;;;;;9.30;7.10;;;;;;;13.54;57.04;101323.48;108272;1285;23715;-68
2023/03/19 07:49:14;;;;;;;10.90;7.10;;;;;;;13.59;56.95;101324.14;108170;1285;22767;-70
2023/03/19 07:51:40;;;;;;;9.80;7.20;;;;;;;13.63;56.73;101323.05;108130;1285;22024;-69
2023/03/19 07:54:14;;;;;;;10.90;6.80;;;;;;;13.64;56.44;101321.10;108244;1285;21985;-69
2023/03/19 07:56:40;;;;;;;10.40;7.10;;;;;;;13.63;56.44;101317.76;108094;1285;22157;-68
2023/03/19 07:59:07;;;;;;;10.90;8.00;;;;;;;13.64;56.50;101321.27;108030;1285;22167;-68
2023/03/19 08:01:32;;;;;;;9.40;6.60;;;;;;;13.63;56.37;101321.80;108095;1282;22027;-69
2023/03/19 08:03:58;;;;;;;9.50;6.40;;;;;;;13.65;56.50;101317.92;108042;1285;22027;-69
2023/03/19 08:06:25;;;;;;;8.90;6.30;;;;;;;13.67;56.37;101318.24;108017;1273;22239;-69
2023/03/19 08:08:51;;;;;;;10.00;7.00;;;;;;;13.73;56.75;101320.11;108128;1283;21988;-67
2023/03/19 08:11:17;;;;;;;8.20;6.40;;;;;;;13.79;56.56;101320.41;107997;1285;21997;-70
2023/03/19 08:13:43;;;;;;;9.90;7.00;;;;;;;13.77;55.91;101318.83;108068;1285;21987;-68
2023/03/19 08:16:12;;;;;;;8.70;6.10;;;;;;;13.75;55.98;101318.67;108164;1284;23714;-70
2023/03/19 08:18:40;;;;;;;10.70;6.20;;;;;;;13.76;56.13;101316.91;108015;1285;23122;-68
2023/03/19 08:21:05;;;;;;;9.60;6.30;;;;;;;13.78;56.49;101316.01;108211;1285;21995;-70
2023/03/19 08:23:34;;;;;;;10.50;6.50;;;;;;;13.84;56.41;101314.55;108098;1285;21987;-69
2023/03/19 08:26:00;;;;;;;10.10;6.50;;;;;;;13.87;56.27;101308.52;108151;1285;23712;-69
2023/03/19 08:28:27;;;;;;;10.20;6.30;;;;;;;13.92;56.51;101303.33;108109;1285;21994;-70
2023/03/19 08:30:54;;;;;;;12.90;7.30;;;;;;;13.99;56.55;101299.38;108289;1285;21989;-70
2023/03/19 08:33:20;;;;;;;9.60;7.60;;;;;;;14.09;56.67;101296.23;108360;1285;23715;-69
2023/03/19 08:35:46;;;;;;;10.60;6.60;;;;;;;14.10;56.16;101296.25;108339;1285;22027;-70
2023/03/19 08:38:13;;;;;;;13.70;6.70;;;;;;;14.08;55.93;101298.38;108356;1285;21971;-69
2023/03/19 08:40:38;;;;;;;7.20;5.90;;;;;;;14.08;56.10;101297.15;108328;1285;22026;-69
2023/03/19 08:43:05;;;;;;;13.70;5.50;;;;;;;14.15;56.56;101298.11;108404;1285;22019;-68
2023/03/19 08:45:31;;;;;;;10.00;5.50;;;;;;;14.22;56.44;101299.08;108232;1283;21985;-69
2023/03/19 08:47:57;;;;;;;10.20;6.20;;;;;;;14.31;56.38;101302.88;108016;1283;21996;-67
2023/03/19 08:50:28;;;;;;;10.30;6.30;;;;;;;14.39;56.31;101297.98;108104;1285;21989;-68
2023/03/19 08:52:55;;;;;;;8.80;6.10;;;;;;;14.48;56.27;101297.69;108174;1282;22050;-69
2023/03/19 08:55:21;;;;;;;8.00;6.10;;;;;;;14.52;55.58;101294.29;108102;1285;21984;-70
2023/03/19 08:57:50;;;;;;;10.60;5.40;;;;;;;14.54;55.86;101293.55;108126;1285;21996;-69
2023/03/19 09:00:16;;;;;;;7.30;5.10;;;;;;;14.61;55.64;101292.03;108192;1278;21981;-69
2023/03/19 09:02:43;;;;;;;7.00;5.30;;;;;;;14.63;55.14;101289.88;108087;1285;21979;-68
2023/03/19 09:05:09;;;;;;;7.90;5.30;;;;;;;14.62;54.83;101279.83;108077;1285;22040;-68
2023/03/19 09:07:34;;;;;;;8.50;5.70;;;;;;;14.56;54.87;101278.14;108047;1285;23736;-69
2023/03/19 09:10:00;;;;;;;9.00;6.30;;;;;;;14.60;54.88;101277.58;108097;1274;22026;-68
2023/03/19 09:12:25;;;;;;;12.10;6.10;;;;;;;14.59;54.55;101278.27;108184;1285;21991;-68
2023/03/19 09:14:51;;;;;;;9.90;6.70;;;;;;;14.60;54.18;101280.92;108006;1285;21991;-69
2023/03/19 09:17:20;;;;;;;14.00;5.90;;;;;;;14.53;54.06;101280.84;108041;1282;21981;-69
2023/03/19 09:19:47;;;;;;;8.50;6.00;;;;;;;14.57;54.91;101275.48;108030;1285;22160;-69
2023/03/19 09:22:13;;;;;;;9.70;5.50;;;;;;;14.65;54.82;101269.55;108033;1285;22507;-68
2023/03/19 09:24:43;;;;;;;7.30;5.80;;;;;;;14.72;54.73;101269.98;108194;1283;22004;-68
2023/03/19 09:27:09;;;;;;;8.10;5.50;;;;;;;14.75;54.97;101273.84;108320;1285;22021;-68
2023/03/19 09:29:35;;;;;;;7.80;6.40;;;;;;;14.73;55.20;101273.70;108054;1281;21984;-68
2023/03/19 09:32:03;;;;;;;7.80;6.10;;;;;;;14.77;55.45;101275.77;108519;1284;23074;-68
2023/03/19 09:34:30;;;;;;;9.80;6.30;;;;;;;14.80;55.26;101276.75;108248;1285;21987;-68
2023/03/19 09:36:56;;;;;;;6.70;5.30;;;;;;;14.86;54.68;101271.36;108029;1285;21997;-68
2023/03/19 09:39:22;;;;;;;8.10;5.70;;;;;;;14.84;54.48;101266.27;107300;1285;1002642;-68
2023/03/19 09:41:48;;;;;;;6.40;5.40;;;;;;;14.81;54.41;101266.32;108065;1285;22100;-69
2023/03/19 09:44:40;;;;;;;7.60;5.50;;;;;;;14.72;54.41;101270.17;108271;1284;21992;-69
2023/03/19 09:47:15;;;;;;;10.50;6.10;;;;;;;14.73;54.83;101269.29;108197;1280;21983;-69
2023/03/19 09:49:42;;;;;;;9.70;6.30;;;;;;;14.79;54.52;101266.70;108067;1285;22047;-69
2023/03/19 09:52:19;;;;;;;7.80;6.10;;;;;;;14.87;54.33;101267.29;108132;1285;21988;-68
2023/03/19 09:54:51;;;;;;;10.60;6.80;;;;;;;14.95;54.56;101262.21;108226;1285;23625;-69
2023/03/19 09:57:17;;;;;;;7.90;5.80;;;;;;;15.00;54.22;101261.61;108103;1285;21987;-69
2023/03/19 09:59:43;;;;;;;10.00;6.00;;;;;;;15.04;54.07;101260.48;108130;1282;21994;-69
2023/03/19 10:02:09;;;;;;;10.20;5.60;;;;;;;15.08;53.95;101263.60;108143;1285;21992;-69
2023/03/19 10:04:41;;;;;;;9.90;5.80;;;;;;;15.16;53.94;101266.46;108139;1285;21986;-70
2023/03/19 10:07:41;;;;;;;7.40;5.50;;;;;;;15.14;54.41;101267.73;108218;1285;21983;-69
2023/03/19 10:10:32;;;;;;;8.90;6.40;;;;;;;15.07;53.93;101270.85;108075;1285;22618;-69
2023/03/19 10:13:10;;;;;;;11.10;6.90;;;;;;;15.01;54.33;101265.66;108033;1285;21995;-69
2023/03/19 10:15:39;;;;;;;10.40;6.80;;;;;;;15.00;54.30;101261.26;108093;1285;21987;-70
2023/03/19 10:18:23;;;;;;;9.60;6.90;;;;;;;14.99;54.41;101257.38;108094;1285;21999;-69
2023/03/19 10:21:07;;;;;;;8.80;6.30;;;;;;;14.96;54.01;101255.14;108177;1285;22033;-69
2023/03/19 10:23:45;;;;;;;8.60;7.00;;;;;;;14.90;54.13;101254.17;108130;1285;21993;-69
2023/03/19 10:26:21;;;;;;;9.00;7.30;;;;;;;14.89;54.16;101249.77;108098;1285;21987;-68
2023/03/19 10:28:57;;;;;;;8.50;6.70;;;;;;;14.98;53.69;101246.79;108041;1285;22447;-69
2023/03/19 10:31:29;;;;;;;9.10;7.60;;;;;;;15.02;53.53;101243.72;108060;1285;21988;-68
2023/03/19 10:34:06;;;;;;;11.90;9.40;;;;;;;15.00;53.27;101241.81;108166;1282;23047;-69
2023/03/19 10:36:34;;;;;;;39.20;21.80;;;;;;;14.92;52.94;101239.82;108116;1285;21987;-69
2023/03/19 10:39:00;;;;;;;18.30;12.20;;;;;;;14.85;52.99;101240.47;108134;1285;22051;-69
2023/03/19 10:41:48;;;;;;;18.10;11.70;;;;;;;14.84;53.34;101233.05;108073;1285;21993;-69
2023/03/19 10:44:35;;;;;;;19.90;12.60;;;;;;;14.90;53.65;101232.09;108117;1286;21992;-68
2023/03/19 10:47:14;;;;;;;15.10;10.70;;;;;;;14.90;53.21;101231.73;108203;1285;21995;-69
2023/03/19 10:49:40;;;;;;;52.00;25.60;;;;;;;14.89;53.41;101231.57;108136;1285;22084;-69
2023/03/19 10:52:17;;;;;;;386.10;222.20;;;;;;;14.94;53.75;101233.43;108152;1286;21997;-70
2023/03/19 10:54:43;;;;;;;392.50;220.10;;;;;;;15.05;54.78;101231.65;105208;1285;1003069;-69
2023/03/19 10:57:20;;;;;;;201.50;108.80;;;;;;;15.21;54.76;101230.66;108198;1286;21984;-69
2023/03/19 10:59:46;;;;;;;232.20;157.60;;;;;;;15.35;54.05;101228.30;108204;1285;23647;-70
2023/03/19 11:02:16;;;;;;;640.70;504.90;;;;;;;15.42;53.70;101226.40;108265;1282;21987;-70
2023/03/19 11:04:41;;;;;;;923.60;668.70;;;;;;;15.59;54.87;101220.95;107444;1285;1002926;-70
2023/03/19 11:07:17;;;;;;;1113.10;739.00;;;;;;;15.94;55.57;101219.72;108238;1286;21983;-70
2023/03/19 11:09:48;;;;;;;328.40;229.50;;;;;;;16.33;55.13;101218.52;108221;1285;21986;-70
2023/03/19 11:12:25;;;;;;;1089.10;710.40;;;;;;;16.61;54.31;101216.98;108378;1285;22506;-70